Time;durP1;ratioP1;P1;durP2;ratioP2;P2;SDS_P1;SDS_P2;PMS_P1;PMS_P2;Temp;Humidity;BMP_temperature;BMP_pressure;BME280_temperature;BME280_humidity;BME280_pressure;Samples;Min_cycle;Max_cycle;Signal;HPM_P1;HPM_P2
2023/12/16 00:00:22;;;;;;;;;18.00;13.00;;;;;11.23;55.22;103614.13;5058090;28;45587;-79
2023/12/16 00:02:48;;;;;;;;;13.67;10.67;;;;;11.57;54.51;103676.28;5054798;28;45417;-86
2023/12/16 00:05:16;;;;;;;;;13.33;12.67;;;;;11.63;54.95;103688.47;5049300;28;46219;-88
2023/12/16 00:07:41;;;;;;;;;12.00;10.33;;;;;11.30;54.74;103627.09;5051661;28;45386;-85
2023/12/16 00:10:09;;;;;;;;;13.00;11.00;;;;;11.76;54.62;103705.53;5049477;28;45354;-87
2023/12/16 00:12:34;;;;;;;;;12.33;11.00;;;;;11.70;54.68;103692.53;5063771;28;45330;-81
2023/12/16 00:15:04;;;;;;;;;13.33;12.33;;;;;11.70;55.37;103698.72;5060877;28;45413;-85
2023/12/16 00:17:30;;;;;;;;;14.67;12.00;;;;;11.39;54.71;103658.59;5045110;28;45338;-83
2023/12/16 00:19:55;;;;;;;;;12.00;12.00;;;;;11.62;54.82;103684.94;5067107;28;45322;-83
2023/12/16 00:22:21;;;;;;;;;12.33;12.00;;;;;11.75;55.01;103704.66;5048980;28;45546;-78
2023/12/16 00:24:46;;;;;;;;;9.67;9.67;;;;;11.33;54.62;103632.28;5039014;28;45543;-79
2023/12/16 00:27:11;;;;;;;;;11.67;10.00;;;;;11.49;54.39;103655.38;5038628;28;45468;-79
2023/12/16 00:29:37;;;;;;;;;11.00;11.00;;;;;11.76;53.93;103705.53;5046192;28;45791;-77
2023/12/16 00:32:02;;;;;;;;;13.33;11.67;;;;;11.76;54.85;103703.72;5053764;28;45174;-77
2023/12/16 00:34:28;;;;;;;;;12.67;10.00;;;;;11.67;55.00;103688.22;5050059;28;45131;-76
2023/12/16 00:36:54;;;;;;;;;10.00;10.00;;;;;11.73;54.68;103701.22;5071200;28;45283;-75
2023/12/16 00:39:20;;;;;;;;;13.00;12.33;;;;;11.48;54.65;103667.00;5071806;28;45338;-73
2023/12/16 00:41:45;;;;;;;;;10.00;9.00;;;;;11.68;54.60;103708.59;5067180;28;45011;-76
2023/12/16 00:44:10;;;;;;;;;10.67;8.33;;;;;11.69;54.67;103705.00;5062987;28;46249;-76
2023/12/16 00:46:36;;;;;;;;;13.00;10.67;;;;;11.69;54.01;103712.13;5070171;28;45155;-77
2023/12/16 00:49:01;;;;;;;;;9.67;7.00;;;;;11.67;54.09;103708.69;5072421;28;45237;-75
2023/12/16 00:51:26;;;;;;;;;8.33;8.33;;;;;11.58;54.47;103689.53;5074500;28;45337;-77
2023/12/16 00:53:52;;;;;;;;;7.67;6.67;;;;;11.57;54.02;103689.63;5072509;28;45502;-77
2023/12/16 00:56:17;;;;;;;;;8.33;8.33;;;;;11.52;53.89;103681.00;5072708;28;44960;-77
2023/12/16 00:58:42;;;;;;;;;7.00;7.00;;;;;11.35;54.37;103651.69;5051482;28;44974;-77
2023/12/16 01:01:08;;;;;;;;;15.33;11.00;;;;;11.48;53.75;103676.78;5052551;28;45076;-75
2023/12/16 01:03:34;;;;;;;;;8.67;8.67;;;;;11.67;54.34;103704.22;5049813;28;45065;-76
2023/12/16 01:06:00;;;;;;;;;11.67;9.00;;;;;11.58;54.24;103688.69;5053787;28;44981;-77
2023/12/16 01:08:25;;;;;;;;;10.33;9.33;;;;;11.65;54.40;103703.44;5050516;28;44976;-78
2023/12/16 01:10:50;;;;;;;;;8.67;7.33;;;;;11.65;54.25;103698.09;5057861;28;45306;-79
2023/12/16 01:13:16;;;;;;;;;9.67;9.00;;;;;11.64;54.76;103696.38;5068688;28;45180;-78
2023/12/16 01:15:41;;;;;;;;;11.00;9.00;;;;;11.38;55.10;103659.53;5067885;28;44941;-77
2023/12/16 01:18:07;;;;;;;;;10.00;10.00;;;;;11.48;54.60;103674.13;5070831;28;45216;-78
2023/12/16 01:20:33;;;;;;;;;9.00;8.00;;;;;11.41;54.25;103667.34;5070727;28;45303;-76
2023/12/16 01:22:58;;;;;;;;;6.00;5.33;;;;;11.56;54.10;103691.41;5070275;28;45247;-76
2023/12/16 01:25:24;;;;;;;;;7.67;7.67;;;;;11.45;53.94;103666.28;5070582;28;45283;-78
2023/12/16 01:27:49;;;;;;;;;7.33;7.33;;;;;11.38;54.04;103657.72;5070263;28;45304;-77
2023/12/16 01:30:14;;;;;;;;;7.00;6.00;;;;;11.51;53.49;103682.81;5057410;28;45464;-77
2023/12/16 01:32:40;;;;;;;;;8.67;7.33;;;;;11.11;54.27;103617.38;5050804;28;45109;-76
2023/12/16 01:35:05;;;;;;;;;7.00;7.00;;;;;11.45;53.67;103687.59;5053030;28;45191;-77
2023/12/16 01:37:31;;;;;;;;;9.00;9.00;;;;;11.52;54.38;103694.31;5052305;28;45165;-76
2023/12/16 01:39:56;;;;;;;;;9.67;8.00;;;;;11.56;54.29;103714.53;5051268;28;44944;-78
2023/12/16 01:42:22;;;;;;;;;14.67;13.00;;;;;11.33;54.62;103665.09;5069651;28;45536;-79
2023/12/16 01:44:47;;;;;;;;;10.00;10.00;;;;;11.18;55.16;103640.09;5072760;28;45046;-77
2023/12/16 01:47:13;;;;;;;;;11.67;11.67;;;;;11.28;55.56;103664.47;5074249;28;45100;-78
2023/12/16 01:49:39;;;;;;;;;17.00;12.33;;;;;11.51;55.33;103711.25;5074979;28;45252;-79
2023/12/16 01:52:06;;;;;;;;;10.00;10.00;;;;;11.35;55.35;103683.66;5074330;28;45245;-76
2023/12/16 01:54:32;;;;;;;;;9.67;9.00;;;;;11.46;54.84;103699.97;5055939;28;45233;-79
2023/12/16 01:57:00;;;;;;;;;8.67;8.67;;;;;11.50;54.65;103709.53;5051571;28;45148;-76
2023/12/16 01:59:27;;;;;;;;;16.67;11.33;;;;;11.37;55.17;103692.44;5050810;28;45018;-76
2023/12/16 02:01:54;;;;;;;;;9.33;8.00;;;;;11.41;55.23;103699.31;5052016;28;46422;-77
2023/12/16 02:04:19;;;;;;;;;9.00;8.00;;;;;11.50;54.82;103712.19;5051959;28;44956;-77
2023/12/16 02:06:45;;;;;;;;;9.33;8.67;;;;;11.44;55.01;103704.53;5052635;28;45979;-76
2023/12/16 02:09:13;;;;;;;;;9.67;9.00;;;;;11.51;54.39;103720.13;5051979;28;45615;-76
2023/12/16 02:11:38;;;;;;;;;13.00;8.33;;;;;11.50;54.48;103721.06;5051049;28;45754;-77
2023/12/16 02:14:04;;;;;;;;;9.00;8.00;;;;;11.48;54.08;103714.94;5049776;28;44894;-76
2023/12/16 02:16:29;;;;;;;;;11.00;8.33;;;;;11.42;53.83;103715.25;5062215;28;45212;-76
2023/12/16 02:18:54;;;;;;;;;9.33;9.33;;;;;11.42;53.99;103711.72;5070953;28;45328;-77
2023/12/16 02:21:20;;;;;;;;;9.33;8.33;;;;;11.33;54.02;103698.84;5069858;28;45122;-77
2023/12/16 02:23:45;;;;;;;;;9.67;7.00;;;;;11.41;54.51;103718.88;5070956;28;44894;-75
2023/12/16 02:26:10;;;;;;;;;11.00;8.67;;;;;11.19;54.99;103681.75;5054345;28;44915;-76
2023/12/16 02:28:36;;;;;;;;;9.33;8.33;;;;;11.33;54.71;103697.06;5062792;28;45069;-77
2023/12/16 02:31:01;;;;;;;;;8.33;8.33;;;;;11.16;55.21;103684.56;5072849;28;45139;-75
2023/12/16 02:33:26;;;;;;;;;11.00;9.00;;;;;11.19;55.10;103699.53;5073111;28;45224;-76
2023/12/16 02:35:52;;;;;;;;;10.00;9.00;;;;;11.19;55.27;103708.38;5070038;28;45371;-76
2023/12/16 02:38:17;;;;;;;;;8.00;8.00;;;;;10.94;55.17;103681.25;5053579;28;45105;-77
2023/12/16 02:40:43;;;;;;;;;9.67;9.00;;;;;10.92;56.09;103683.97;5052196;28;46720;-75
2023/12/16 02:43:09;;;;;;;;;6.67;6.00;;;;;11.03;55.46;103710.09;5053506;28;45064;-75
2023/12/16 02:45:34;;;;;;;;;10.67;9.00;;;;;10.95;55.83;103710.44;5069378;28;45123;-76
2023/12/16 02:48:00;;;;;;;;;9.00;6.33;;;;;10.82;55.75;103706.69;5040344;28;45443;-76
2023/12/16 02:50:25;;;;;;;;;9.00;9.00;;;;;10.88;56.09;103719.69;5037221;28;46020;-76
2023/12/16 02:52:50;;;;;;;;;9.00;9.00;;;;;10.87;56.17;103725.94;5037348;28;45584;-76
2023/12/16 02:55:17;;;;;;;;;13.00;11.67;;;;;10.83;56.65;103719.03;5046670;28;46127;-77
2023/12/16 02:57:43;;;;;;;;;5.67;3.33;;;;;10.49;56.29;103671.00;5036043;28;45392;-76
2023/12/16 03:00:08;;;;;;;;;9.33;9.00;;;;;10.55;56.51;103684.88;5051686;28;45464;-76
2023/12/16 03:02:34;;;;;;;;;11.00;10.00;;;;;10.66;56.94;103703.00;5043770;28;45499;-76
2023/12/16 03:04:59;;;;;;;;;10.33;9.00;;;;;10.77;56.97;103729.09;5069153;28;45143;-77
2023/12/16 03:07:25;;;;;;;;;16.00;10.67;;;;;10.74;56.78;103735.44;5055554;28;45012;-76
2023/12/16 03:09:50;;;;;;;;;11.67;9.67;;;;;10.72;57.28;103731.97;5054480;28;46088;-76
2023/12/16 03:12:15;;;;;;;;;10.33;9.67;;;;;10.69;57.35;103736.59;5053161;28;45023;-77
2023/12/16 03:14:41;;;;;;;;;7.33;7.33;;;;;10.60;57.43;103727.22;5054650;28;45043;-78
2023/12/16 03:17:07;;;;;;;;;12.33;11.00;;;;;10.65;57.41;103752.69;5053777;28;45159;-74
2023/12/16 03:19:32;;;;;;;;;8.00;7.00;;;;;10.62;57.88;103746.66;5051931;28;45871;-76
2023/12/16 03:21:58;;;;;;;;;14.00;11.00;;;;;10.24;57.95;103688.09;5053219;28;45467;-74
2023/12/16 03:24:23;;;;;;;;;8.67;8.67;;;;;10.58;58.06;103751.22;5053139;28;45092;-76
2023/12/16 03:26:48;;;;;;;;;10.33;10.00;;;;;10.54;57.58;103749.66;5053575;28;45052;-74
2023/12/16 03:29:14;;;;;;;;;10.00;9.67;;;;;10.50;58.24;103753.41;5075147;28;46562;-75
2023/12/16 03:31:39;;;;;;;;;11.67;10.33;;;;;10.50;57.87;103745.41;5077317;28;45064;-75
2023/12/16 03:34:04;;;;;;;;;12.33;10.00;;;;;10.51;57.96;103763.09;5075944;28;45009;-75
2023/12/16 03:36:30;;;;;;;;;12.00;9.00;;;;;10.31;57.98;103721.44;5073121;28;45228;-75
2023/12/16 03:38:56;;;;;;;;;9.67;9.67;;;;;10.42;57.95;103739.59;5071730;28;45975;-75
2023/12/16 03:41:21;;;;;;;;;10.00;9.67;;;;;10.52;58.43;103746.22;5071635;28;45393;-75
2023/12/16 03:43:46;;;;;;;;;9.00;9.00;;;;;10.52;58.10;103745.34;5071391;28;45398;-74
2023/12/16 03:46:11;;;;;;;;;9.67;7.67;;;;;10.49;58.19;103743.69;5071779;28;44852;-74
2023/12/16 03:48:37;;;;;;;;;9.33;8.00;;;;;10.10;58.43;103663.03;5071187;28;45744;-75
2023/12/16 03:51:03;;;;;;;;;9.33;8.00;;;;;10.35;58.18;103706.22;5069891;28;45231;-76
2023/12/16 03:53:28;;;;;;;;;6.67;6.33;;;;;10.51;58.01;103728.53;5075476;28;44991;-75
2023/12/16 03:55:53;;;;;;;;;10.67;8.67;;;;;10.57;58.00;103736.22;5076154;28;44909;-77
2023/12/16 03:58:19;;;;;;;;;6.67;6.67;;;;;10.50;57.60;103716.16;5074612;28;45608;-75
2023/12/16 04:00:44;;;;;;;;;8.33;7.00;;;;;10.65;57.45;103739.41;5073825;28;44934;-74
2023/12/16 04:03:10;;;;;;;;;7.67;6.33;;;;;10.57;57.70;103719.38;5074169;28;45089;-73
2023/12/16 04:05:35;;;;;;;;;8.33;8.00;;;;;10.71;56.70;103735.56;5073073;28;45142;-74
2023/12/16 04:08:01;;;;;;;;;6.67;6.00;;;;;10.74;56.81;103737.22;5074440;28;45628;-76
2023/12/16 04:10:26;;;;;;;;;12.33;8.67;;;;;10.59;56.51;103710.41;5061528;28;45095;-75
2023/12/16 04:12:52;;;;;;;;;9.33;7.33;;;;;10.78;56.71;103736.13;5054732;28;45225;-77
2023/12/16 04:15:17;;;;;;;;;9.00;7.00;;;;;10.71;56.51;103727.59;5054482;28;44938;-74
2023/12/16 04:17:42;;;;;;;;;9.00;7.33;;;;;10.81;56.67;103736.00;5054432;28;47601;-73
2023/12/16 04:20:08;;;;;;;;;9.33;7.33;;;;;10.84;56.54;103739.41;5053973;28;45279;-76
2023/12/16 04:22:33;;;;;;;;;8.67;8.00;;;;;10.89;56.40;103728.53;5054573;28;45211;-77
2023/12/16 04:24:59;;;;;;;;;5.67;5.67;;;;;10.95;56.12;103737.06;5054182;28;45121;-76
2023/12/16 04:27:26;;;;;;;;;10.67;9.00;;;;;10.94;56.58;103726.50;5053938;28;46262;-76
2023/12/16 04:29:51;;;;;;;;;8.00;8.00;;;;;11.01;56.65;103733.25;5054623;28;45173;-76
2023/12/16 04:32:17;;;;;;;;;7.00;7.00;;;;;10.77;56.31;103681.19;5052189;28;45398;-75
2023/12/16 04:34:42;;;;;;;;;8.33;8.33;;;;;10.94;56.59;103699.88;5056415;28;45217;-76
2023/12/16 04:37:08;;;;;;;;;10.67;8.00;;;;;11.04;56.78;103730.47;5070990;28;45512;-75
2023/12/16 04:39:33;;;;;;;;;11.00;9.00;;;;;10.99;56.79;103716.47;5064758;28;45384;-78
2023/12/16 04:41:58;;;;;;;;;9.00;7.67;;;;;10.67;56.81;103662.16;5060518;28;45303;-77
2023/12/16 04:44:24;;;;;;;;;9.00;7.33;;;;;11.07;56.91;103730.31;5072864;28;45047;-77
2023/12/16 04:46:49;;;;;;;;;8.00;7.00;;;;;10.99;56.24;103711.16;5070816;28;45057;-75
2023/12/16 04:49:14;;;;;;;;;9.33;8.00;;;;;11.07;56.38;103727.66;5073588;28;45115;-74
2023/12/16 04:51:40;;;;;;;;;13.00;9.67;;;;;11.08;55.98;103729.38;5072825;28;45069;-74
2023/12/16 04:54:05;;;;;;;;;7.67;7.67;;;;;11.06;56.50;103728.59;5072182;28;45255;-74
2023/12/16 04:56:30;;;;;;;;;10.00;7.00;;;;;10.86;56.42;103692.28;5053855;28;45699;-75
2023/12/16 04:58:56;;;;;;;;;8.00;7.33;;;;;10.77;55.63;103665.22;5053136;28;45013;-76
2023/12/16 05:01:21;;;;;;;;;8.67;6.67;;;;;11.11;55.65;103718.56;5052853;28;45342;-76
2023/12/16 05:03:47;;;;;;;;;8.00;6.67;;;;;10.43;56.08;103602.16;5057755;28;44989;-78
2023/12/16 05:06:13;;;;;;;;;8.67;7.67;;;;;11.14;55.67;103723.72;5052612;28;47126;-77
2023/12/16 05:08:38;;;;;;;;;6.00;6.00;;;;;11.13;55.47;103723.81;5054704;28;45166;-75
2023/12/16 05:11:03;;;;;;;;;7.67;7.67;;;;;11.11;56.08;103723.88;5052129;28;45111;-78
2023/12/16 05:13:29;;;;;;;;;12.33;10.00;;;;;11.09;55.09;103728.44;5053151;28;45012;-77
2023/12/16 05:15:54;;;;;;;;;7.33;7.33;;;;;11.12;55.97;103725.63;5052340;28;45298;-77
2023/12/16 05:18:20;;;;;;;;;8.00;8.00;;;;;11.16;56.06;103726.31;5052768;28;45153;-76
2023/12/16 05:20:45;;;;;;;;;10.00;6.67;;;;;11.08;55.52;103710.72;5064938;28;45221;-76
2023/12/16 05:23:11;;;;;;;;;9.67;8.00;;;;;11.07;55.71;103713.47;5073080;28;45281;-77
2023/12/16 05:25:37;;;;;;;;;9.67;8.67;;;;;11.06;56.36;103719.72;5072841;28;45724;-77
2023/12/16 05:28:02;;;;;;;;;6.33;6.33;;;;;10.78;55.64;103682.91;5070538;28;45190;-77
2023/12/16 05:30:28;;;;;;;;;11.00;9.33;;;;;11.03;55.89;103718.09;5069920;28;45129;-78
2023/12/16 05:32:53;;;;;;;;;6.33;3.67;;;;;10.88;56.13;103690.41;5070168;28;45209;-74
2023/12/16 05:35:19;;;;;;;;;6.33;5.00;;;;;10.65;55.58;103654.25;5068925;28;47916;-76
2023/12/16 05:37:45;;;;;;;;;7.33;7.00;;;;;10.53;55.66;103630.88;5065977;28;45092;-75
2023/12/16 05:40:11;;;;;;;;;8.33;8.00;;;;;10.99;55.29;103708.50;5052349;28;44950;-75
2023/12/16 05:42:36;;;;;;;;;10.67;9.00;;;;;10.90;55.50;103692.97;5052308;28;45151;-77
2023/12/16 05:45:02;;;;;;;;;10.00;8.33;;;;;10.72;56.06;103668.13;5049810;28;45623;-77
2023/12/16 05:47:27;;;;;;;;;7.00;7.00;;;;;10.91;55.77;103716.00;5049192;28;45552;-76
2023/12/16 05:49:53;;;;;;;;;6.33;6.33;;;;;10.90;55.78;103717.81;5050186;28;45049;-76
2023/12/16 05:52:18;;;;;;;;;8.00;7.00;;;;;10.91;56.48;103716.00;5049820;28;45018;-75
2023/12/16 05:54:43;;;;;;;;;8.67;7.33;;;;;10.89;56.64;103707.22;5049894;28;45773;-76
2023/12/16 05:57:09;;;;;;;;;8.67;7.00;;;;;10.84;56.36;103698.63;5064093;28;45178;-77
2023/12/16 05:59:34;;;;;;;;;7.00;7.00;;;;;10.80;56.22;103703.19;5055564;28;45409;-74
2023/12/16 06:02:00;;;;;;;;;12.33;10.00;;;;;10.88;56.62;103724.13;5058557;28;45151;-76
2023/12/16 06:04:25;;;;;;;;;7.00;7.00;;;;;10.68;56.50;103698.47;5055902;28;45699;-76
2023/12/16 06:06:51;;;;;;;;;10.00;8.67;;;;;10.71;56.60;103695.66;5060085;28;45206;-77
2023/12/16 06:09:16;;;;;;;;;9.33;7.67;;;;;10.82;56.25;103721.78;5073212;28;44990;-77
2023/12/16 06:11:42;;;;;;;;;7.00;7.00;;;;;10.68;56.62;103706.47;5075835;28;45203;-76
2023/12/16 06:14:07;;;;;;;;;11.67;9.33;;;;;10.68;56.76;103724.22;5076198;28;45084;-77
2023/12/16 06:16:32;;;;;;;;;9.33;6.33;;;;;10.61;56.91;103719.19;5071053;28;45330;-77
2023/12/16 06:18:59;;;;;;;;;10.33;10.00;;;;;10.50;56.75;103708.19;5057135;28;45308;-78
2023/12/16 06:21:24;;;;;;;;;7.67;7.00;;;;;10.35;56.90;103695.56;5064908;28;45232;-79
2023/12/16 06:23:50;;;;;;;;;9.00;8.00;;;;;10.43;57.00;103713.84;5059861;28;45183;-77
2023/12/16 06:26:15;;;;;;;;;7.67;7.67;;;;;10.30;57.20;103709.09;5045722;28;45516;-76
2023/12/16 06:28:40;;;;;;;;;11.00;8.67;;;;;9.93;57.34;103669.97;5041252;28;45579;-79
2023/12/16 06:31:06;;;;;;;;;7.67;6.00;;;;;10.07;57.55;103701.25;5042748;28;44852;-76
2023/12/16 06:33:31;;;;;;;;;5.67;5.67;;;;;9.77;57.48;103655.63;5042312;28;46286;-76
2023/12/16 06:35:57;;;;;;;;;10.33;7.00;;;;;10.26;57.24;103743.88;5042213;28;45397;-77
2023/12/16 06:38:22;;;;;;;;;7.33;7.00;;;;;10.23;57.28;103742.22;5043749;28;45488;-77
2023/12/16 06:40:47;;;;;;;;;10.67;7.00;;;;;10.06;57.36;103705.72;5044164;28;45604;-76
2023/12/16 06:43:13;;;;;;;;;7.00;5.33;;;;;10.24;57.78;103740.41;5043073;28;46149;-77
2023/12/16 06:45:38;;;;;;;;;7.00;7.00;;;;;10.02;57.67;103704.13;5040780;28;45382;-76
2023/12/16 06:48:04;;;;;;;;;8.33;7.33;;;;;10.17;58.01;103738.91;5043310;28;45459;-79
2023/12/16 06:50:30;;;;;;;;;10.00;9.00;;;;;10.18;57.59;103741.50;5041742;28;45301;-78
2023/12/16 06:52:55;;;;;;;;;9.33;7.00;;;;;9.75;58.00;103666.31;5040745;28;45771;-78
2023/12/16 06:55:21;;;;;;;;;7.67;6.33;;;;;10.21;57.73;103751.16;5040419;28;45787;-77
2023/12/16 06:57:46;;;;;;;;;11.33;9.67;;;;;10.02;58.02;103725.41;5056289;28;45373;-77
2023/12/16 07:00:12;;;;;;;;;10.67;9.67;;;;;9.86;58.34;103700.41;5060986;28;45393;-75
2023/12/16 07:02:41;;;;;;;;;9.67;9.33;;;;;10.15;58.34;103756.72;5049194;28;46652;-73
2023/12/16 07:05:07;;;;;;;;;7.00;7.00;;;;;10.02;58.63;103741.34;5040390;28;45399;-77
2023/12/16 07:07:32;;;;;;;;;7.00;7.00;;;;;10.04;59.01;103747.44;5040416;28;45495;-75
2023/12/16 07:09:57;;;;;;;;;7.00;7.00;;;;;10.00;58.93;103740.50;5038553;28;45324;-75
2023/12/16 07:12:23;;;;;;;;;10.67;9.00;;;;;10.11;59.25;103763.13;5036802;28;45976;-77
2023/12/16 07:14:49;;;;;;;;;8.33;6.67;;;;;10.02;59.16;103753.78;5043214;28;45471;-74
2023/12/16 07:17:14;;;;;;;;;8.67;7.00;;;;;10.02;59.16;103759.94;5067107;28;45099;-75
2023/12/16 07:19:39;;;;;;;;;12.00;7.67;;;;;9.99;59.11;103757.41;5072579;28;44994;-75
2023/12/16 07:22:05;;;;;;;;;9.33;7.00;;;;;10.00;59.59;103759.13;5071145;28;45493;-78
2023/12/16 07:24:30;;;;;;;;;11.00;9.33;;;;;9.95;59.48;103765.56;5062981;28;44921;-78
2023/12/16 07:26:55;;;;;;;;;9.67;7.00;;;;;9.87;59.56;103752.63;5072060;28;45510;-76
2023/12/16 07:29:21;;;;;;;;;9.67;8.67;;;;;9.79;59.49;103757.38;5064208;28;44931;-78
2023/12/16 07:31:50;;;;;;;;;9.67;9.00;;;;;9.90;59.88;103771.09;5063849;28;45615;-77
2023/12/16 07:34:16;;;;;;;;;7.33;6.00;;;;;9.90;60.08;103771.09;5071016;28;45257;-78
2023/12/16 07:36:41;;;;;;;;;14.67;10.67;;;;;9.80;59.98;103753.81;5070557;28;44902;-74
2023/12/16 07:39:07;;;;;;;;;10.00;9.00;;;;;9.84;59.76;103762.53;5054706;28;45584;-77
2023/12/16 07:41:34;;;;;;;;;8.00;7.00;;;;;9.75;60.33;103753.13;5051074;28;47153;-78
2023/12/16 07:44:00;;;;;;;;;10.67;8.67;;;;;9.65;60.01;103743.84;5038375;28;45443;-77
2023/12/16 07:46:26;;;;;;;;;9.00;8.33;;;;;9.81;60.47;103782.13;5040004;28;45535;-78
2023/12/16 07:48:51;;;;;;;;;9.67;9.67;;;;;9.89;60.41;103803.91;5052453;28;45141;-78
2023/12/16 07:51:18;;;;;;;;;13.33;9.00;;;;;9.89;60.48;103803.91;5051938;28;45798;-78
2023/12/16 07:53:46;;;;;;;;;14.00;11.67;;;;;9.80;60.59;103788.34;5055371;28;44988;-77
2023/12/16 07:56:16;;;;;;;;;8.33;8.33;;;;;9.80;60.53;103788.34;5053480;28;45151;-77
2023/12/16 07:58:42;;;;;;;;;11.33;10.00;;;;;9.88;60.59;103810.16;5053797;28;45219;-78
2023/12/16 08:01:13;;;;;;;;;8.33;8.33;;;;;9.88;60.92;103804.84;5053307;28;45616;-78
2023/12/16 08:03:39;;;;;;;;;12.00;10.33;;;;;9.75;60.51;103787.69;5057624;28;45288;-79
2023/12/16 08:06:04;;;;;;;;;11.67;11.00;;;;;9.89;60.45;103813.69;5055544;28;45132;-75
2023/12/16 08:08:30;;;;;;;;;15.33;11.00;;;;;9.69;60.41;103778.19;5055812;28;45199;-77
2023/12/16 08:10:56;;;;;;;;;13.00;13.00;;;;;9.85;60.70;103804.97;5059019;28;46229;-80
2023/12/16 08:13:22;;;;;;;;;14.00;11.00;;;;;9.66;60.96;103770.34;5052895;28;45467;-77
2023/12/16 08:15:47;;;;;;;;;11.67;11.33;;;;;9.96;60.99;103823.97;5040210;28;45672;-79
2023/12/16 08:18:13;;;;;;;;;13.00;12.00;;;;;9.97;61.05;103828.38;5048650;28;45720;-80
2023/12/16 08:20:38;;;;;;;;;15.67;15.33;;;;;9.78;61.03;103784.88;5056958;28;45392;-80
2023/12/16 08:23:05;;;;;;;;;16.00;13.00;;;;;9.71;60.97;103773.66;5058244;28;45539;-75
2023/12/16 08:25:31;;;;;;;;;15.33;14.33;;;;;10.03;61.41;103821.94;5057727;28;45449;-77
2023/12/16 08:27:56;;;;;;;;;18.33;18.33;;;;;9.74;61.49;103777.97;5054881;28;45317;-79
2023/12/16 08:30:22;;;;;;;;;19.67;14.33;;;;;10.12;61.49;103837.50;5044816;28;45441;-78
2023/12/16 08:32:47;;;;;;;;;18.00;17.33;;;;;9.97;61.58;103796.47;5044224;28;45370;-78
2023/12/16 08:35:14;;;;;;;;;22.33;18.33;;;;;9.85;61.94;103780.19;5041690;28;45539;-78
2023/12/16 08:37:40;;;;;;;;;23.00;20.00;;;;;10.21;61.78;103833.59;5063568;28;45698;-78
2023/12/16 08:40:07;;;;;;;;;26.67;23.33;;;;;10.23;61.33;103840.59;5072223;28;45057;-78
2023/12/16 08:42:32;;;;;;;;;21.00;20.67;;;;;10.26;61.70;103840.47;5055595;28;45043;-78
2023/12/16 08:44:57;;;;;;;;;25.67;23.00;;;;;10.19;61.43;103817.66;5050827;28;45133;-78
2023/12/16 08:47:23;;;;;;;;;26.33;21.67;;;;;10.37;61.39;103842.63;5064925;28;45094;-77
2023/12/16 08:49:48;;;;;;;;;22.00;20.00;;;;;10.31;61.37;103821.66;5065216;28;46318;-78
2023/12/16 08:52:14;;;;;;;;;26.00;26.00;;;;;10.52;60.89;103835.78;5064728;28;45369;-79
2023/12/16 08:54:41;;;;;;;;;27.00;25.33;;;;;10.69;59.96;103760.53;5064990;28;45031;-79
2023/12/16 08:57:06;;;;;;;;;24.00;24.00;;;;;12.03;57.71;103837.47;5071901;28;45295;-77
2023/12/16 08:59:32;;;;;;;;;31.00;24.67;;;;;12.87;55.17;103848.19;5049777;28;46124;-79
2023/12/16 09:01:57;;;;;;;;;25.67;23.33;;;;;12.93;54.43;103821.13;5040668;28;45495;-79
2023/12/16 09:04:22;;;;;;;;;38.33;33.33;;;;;13.80;53.15;103858.97;5036540;28;45322;-78
2023/12/16 09:06:48;;;;;;;;;31.00;27.00;;;;;13.21;52.82;103767.06;5035584;28;45647;-78
2023/12/16 09:09:14;;;;;;;;;33.67;30.00;;;;;13.14;53.63;103805.72;5036277;28;45537;-78
2023/12/16 09:11:40;;;;;;;;;30.67;27.67;;;;;12.80;54.21;103799.56;5036057;28;45457;-76
2023/12/16 09:14:06;;;;;;;;;35.67;32.67;;;;;11.90;54.71;103688.84;5036374;28;45621;-78
2023/12/16 09:16:34;;;;;;;;;30.00;29.33;;;;;12.42;55.61;103802.53;5035020;28;45493;-79
2023/12/16 09:18:59;;;;;;;;;42.00;34.67;;;;;12.13;55.63;103768.50;5053653;28;46517;-78
2023/12/16 09:21:24;;;;;;;;;34.33;32.00;;;;;12.48;56.07;103850.22;5061006;28;45423;-76
2023/12/16 09:23:50;;;;;;;;;35.67;32.67;;;;;12.40;56.76;103841.75;5052078;28;45538;-77
2023/12/16 09:26:15;;;;;;;;;35.33;33.00;;;;;11.70;56.95;103732.50;5044335;28;45253;-79
2023/12/16 09:28:40;;;;;;;;;35.33;31.33;;;;;11.64;57.02;103738.16;5057518;28;45985;-78
2023/12/16 09:31:06;;;;;;;;;39.00;33.33;;;;;11.44;56.88;103731.16;5055047;28;46138;-78
2023/12/16 09:33:31;;;;;;;;;42.33;34.00;;;;;12.09;57.11;103854.94;5057500;28;45510;-82
2023/12/16 09:35:57;;;;;;;;;33.33;30.00;;;;;12.05;56.76;103846.25;5057617;28;45450;-78
2023/12/16 09:38:22;;;;;;;;;37.00;34.33;;;;;11.95;57.17;103846.78;5055904;28;45996;-78
2023/12/16 09:40:48;;;;;;;;;37.67;33.33;;;;;11.43;57.06;103788.91;5054985;28;45263;-78
2023/12/16 09:43:17;;;;;;;;;46.67;38.00;;;;;11.75;57.73;103853.94;5049434;28;45540;-79
2023/12/16 09:45:48;;;;;;;;;43.67;35.67;;;;;11.49;58.04;103822.38;5075141;28;45174;-80
2023/12/16 09:48:17;;;;;;;;;43.33;33.00;;;;;11.70;57.77;103861.28;5047335;28;45284;-81
2023/12/16 09:50:44;;;;;;;;;36.67;32.00;;;;;11.69;57.93;103861.38;5054477;28;44943;-80
2023/12/16 09:53:11;;;;;;;;;39.00;32.67;;;;;11.63;58.26;103869.69;5055401;28;44981;-79
2023/12/16 09:55:36;;;;;;;;;39.33;33.33;;;;;10.72;57.96;103712.50;5055893;28;44902;-78
2023/12/16 09:58:04;;;;;;;;;45.00;35.00;;;;;10.79;57.86;103735.22;5066979;28;45030;-79
2023/12/16 10:00:31;;;;;;;;;41.67;35.00;;;;;11.53;58.34;103869.25;5076286;28;45001;-79
2023/12/16 10:02:57;;;;;;;;;41.33;35.67;;;;;11.52;58.03;103868.38;5064665;28;45196;-79
2023/12/16 10:05:28;;;;;;;;;43.00;36.33;;;;;11.48;58.29;103866.81;5075816;28;45036;-81
2023/12/16 10:07:59;;;;;;;;;44.00;35.33;;;;;11.16;58.69;103816.84;5072747;28;45766;-80
2023/12/16 10:10:25;;;;;;;;;44.00;37.00;;;;;11.45;58.73;103863.44;5052213;28;45544;-82
2023/12/16 10:12:50;;;;;;;;;41.00;36.00;;;;;11.35;58.84;103838.16;5060278;28;45388;-81
2023/12/16 10:15:30;;;;;;;;;37.67;33.00;;;;;10.65;58.09;103717.25;5051145;28;45422;-79
2023/12/16 10:17:56;;;;;;;;;42.33;36.00;;;;;11.50;57.81;103858.75;5040077;28;45633;-80
2023/12/16 10:20:21;;;;;;;;;37.33;34.00;;;;;11.17;58.01;103792.81;5048270;28;45395;-80
2023/12/16 10:22:48;;;;;;;;;43.33;33.33;;;;;11.32;57.14;103822.31;5060709;28;45503;-78
2023/12/16 10:25:14;;;;;;;;;27.33;26.00;;;;;11.50;56.32;103846.28;5059588;28;45555;-79
2023/12/16 10:27:43;;;;;;;;;27.33;21.67;;;;;10.63;55.88;103690.72;5051456;28;46274;-80
2023/12/16 10:30:10;;;;;;;;;25.33;23.33;;;;;11.56;56.04;103853.09;5055959;28;45583;-78
2023/12/16 10:32:40;;;;;;;;;23.67;20.00;;;;;11.56;55.05;103866.44;5053628;28;45458;-78
2023/12/16 10:35:07;;;;;;;;;26.67;23.67;;;;;11.17;54.67;103791.94;5055144;28;45452;-80
2023/12/16 10:37:33;;;;;;;;;31.00;26.33;;;;;11.49;55.07;103852.53;5054362;28;47081;-78
2023/12/16 10:39:59;;;;;;;;;28.33;27.67;;;;;10.85;54.81;103737.59;5055693;28;45550;-79
2023/12/16 10:42:24;;;;;;;;;31.33;29.67;;;;;11.53;55.88;103846.13;5057424;28;45647;-79
2023/12/16 10:44:52;;;;;;;;;33.67;31.00;;;;;10.48;55.49;103663.97;5056390;28;45455;-78
2023/12/16 10:47:18;;;;;;;;;31.00;26.33;;;;;11.54;55.67;103847.84;5059876;28;45612;-80
2023/12/16 10:49:45;;;;;;;;;32.33;29.67;;;;;11.56;55.29;103832.66;5054686;28;45525;-80
2023/12/16 10:52:17;;;;;;;;;41.00;35.33;;;;;11.37;55.40;103798.97;5042735;28;45588;-80
2023/12/16 10:54:59;;;;;;;;;37.33;33.00;;;;;11.37;55.72;103798.97;5041288;28;45538;-78
2023/12/16 10:57:47;;;;;;;;;35.00;32.00;;;;;11.38;55.43;103790.06;5056479;28;45497;-78
2023/12/16 11:00:23;;;;;;;;;31.33;27.33;;;;;11.25;54.93;103772.03;5045614;28;45513;-80
2023/12/16 11:03:01;;;;;;;;;31.67;30.00;;;;;11.59;54.90;103823.63;5046232;28;46096;-76
2023/12/16 11:05:34;;;;;;;;;37.00;33.33;;;;;11.61;55.20;103821.75;5040559;28;45572;-80
2023/12/16 11:08:05;;;;;;;;;41.00;32.00;;;;;11.16;55.03;103743.16;5044120;28;46314;-82
2023/12/16 11:10:31;;;;;;;;;34.33;32.33;;;;;11.61;54.80;103813.75;5040875;28;45498;-77
2023/12/16 11:12:59;;;;;;;;;29.00;25.00;;;;;11.62;54.14;103815.53;5042207;28;45460;-77